Decoded Metar for CYBC (BAIE COMEAU in QC, CANADA) (IATA:YBC) | Meteo·Mobile Aviation Weather
aviador You're here:

CYBC Decoded Metar

BAIE COMEAU in QC, CANADA
Report Time2018-09-18 22:35:00
UTC Time2018-09-18 22:58:54
Flight Rules vfr VFR
Wind070° at 12 Gusting to 18 kt
W.Decomp.*RWY 10: 11.8 kt HW 2.1 kt LCW
W.Rank070° ranks 7
Current wind is above 070° avg. (10.7)
Visibility9999 m
Phenomena:N/A
Clouds:Scattered 022 Hf
Overcast 060 Hf
Expected CloudBase > 1,600 ft AGL from Temp-Dew spread
Ceiling6,000 ft
Temp08°C (ISA -7)
Dew Point04°C (76% RH)
AAT2.4°C
QNH1017 hPa
Density Alt-778 ft
Elevation72 ft
Report Wrong Elevation
Raw Report
SPECI CYBC 182235Z AUTO 07012G18KT 9SM SCT022 OVC060 08/04 A3003 RMK
SLP173=

Extra information for CYBC:More info

Metar Taf Metar & Taf Last 4 Metars F.Rules Stats Wind Profile Meteogram Temp Stats Airport Information Weather charts Add Link Nearby VenuesMetar ALERT Operation Metar Decoded Social comments